UAL3037 RJTT-PGUM
Flight info
| Callsign | UAL3037 |
|---|---|
| Flight time | 4h 9m |
| Altitude | 36000 |
| Route | OPPAR UTIBO Y87 FITTO Y873 SABRI B586 CADDY/N0470F350 B586 UKATA/N0468F370 VASKO B586 WINZR |
| Aircraft | B763/H-SDE3FGHIM3RWXY/LB1 |
Departure
| Time | 2026-04-26 13:24 |
|---|---|
| Airport | Tokyo Haneda International Airport (RJTT) |
Arrival
| Time | 2026-04-26 17:34 |
|---|---|
| Airport | Antonio B. Won Pat International Airport (PGUM) |
| Time | Latitude | Longitude | Altitude | Speed | Heading |
|---|---|---|---|---|---|
| 2026-04-26 13:09 | 35.54263 | 139.77208 | 31 ft | 0 kts | 240° |
| 2026-04-26 13:10 | 35.54265 | 139.77214 | 31 ft | 2 kts | 240° |
| 2026-04-26 13:10 | 35.54273 | 139.77231 | 31 ft | 2 kts | 240° |
| 2026-04-26 13:11 | 35.54281 | 139.77246 | 31 ft | 2 kts | 240° |
| 2026-04-26 13:11 | 35.54288 | 139.77261 | 31 ft | 2 kts | 240° |
| 2026-04-26 13:11 | 35.54293 | 139.77274 | 31 ft | 1 kts | 240° |
| 2026-04-26 13:11 | 35.54297 | 139.77280 | 31 ft | 1 kts | 239° |
| 2026-04-26 13:12 | 35.54305 | 139.77293 | 31 ft | 2 kts | 225° |
| 2026-04-26 13:12 | 35.54314 | 139.77303 | 31 ft | 2 kts | 213° |
| 2026-04-26 13:12 | 35.54329 | 139.77312 | 31 ft | 2 kts | 198° |
| 2026-04-26 13:12 | 35.54345 | 139.77315 | 31 ft | 2 kts | 182° |
| 2026-04-26 13:13 | 35.54360 | 139.77313 | 31 ft | 2 kts | 169° |
| 2026-04-26 13:13 | 35.54374 | 139.77309 | 31 ft | 1 kts | 155° |
| 2026-04-26 13:13 | 35.54379 | 139.77306 | 31 ft | 0 kts | 150° |
| 2026-04-26 13:15 | 35.54366 | 139.77321 | 31 ft | 6 kts | 127° |
| 2026-04-26 13:16 | 35.54361 | 139.77379 | 31 ft | 12 kts | 72° |
| 2026-04-26 13:16 | 35.54422 | 139.77512 | 31 ft | 22 kts | 62° |
| 2026-04-26 13:16 | 35.54485 | 139.77710 | 31 ft | 14 kts | 126° |
| 2026-04-26 13:16 | 35.54408 | 139.77799 | 31 ft | 12 kts | 123° |
| 2026-04-26 13:17 | 35.54473 | 139.77991 | 31 ft | 18 kts | 60° |
| 2026-04-26 13:17 | 35.54548 | 139.78160 | 31 ft | 21 kts | 89° |
| 2026-04-26 13:18 | 35.54265 | 139.78401 | 31 ft | 30 kts | 149° |
| 2026-04-26 13:18 | 35.54091 | 139.78517 | 31 ft | 26 kts | 152° |
| 2026-04-26 13:18 | 35.53781 | 139.78763 | 31 ft | 9 kts | 77° |
| 2026-04-26 13:19 | 35.53867 | 139.78807 | 31 ft | 21 kts | 346° |
| 2026-04-26 13:19 | 35.54016 | 139.78691 | 31 ft | 27 kts | 325° |
| 2026-04-26 13:19 | 35.54189 | 139.78557 | 31 ft | 28 kts | 333° |
| 2026-04-26 13:19 | 35.55523 | 139.77611 | 31 ft | 14 kts | 333° |
| 2026-04-26 13:20 | 35.55973 | 139.77348 | 31 ft | 8 kts | 17° |
| 2026-04-26 13:20 | 35.56007 | 139.77428 | 31 ft | 25 kts | 75° |
| 2026-04-26 13:20 | 35.56109 | 139.77684 | 31 ft | 37 kts | 58° |
| 2026-04-26 13:20 | 35.56276 | 139.78038 | 31 ft | 51 kts | 62° |
| 2026-04-26 13:21 | 35.56454 | 139.78351 | 31 ft | 35 kts | 53° |
| 2026-04-26 13:21 | 35.56539 | 139.78578 | 31 ft | 21 kts | 56° |
| 2026-04-26 13:21 | 35.56574 | 139.78665 | 31 ft | 3 kts | 91° |
| 2026-04-26 13:21 | 35.56561 | 139.78680 | 31 ft | 6 kts | 158° |
| 2026-04-26 13:22 | 35.56552 | 139.78685 | 31 ft | 0 kts | 158° |
| 2026-04-26 13:22 | 35.56551 | 139.78685 | 31 ft | 0 kts | 157° |
| 2026-04-26 13:22 | 35.56548 | 139.78687 | 31 ft | 0 kts | 155° |
| 2026-04-26 13:23 | 35.56547 | 139.78688 | 31 ft | 0 kts | 154° |
| 2026-04-26 13:23 | 35.56537 | 139.78694 | 31 ft | 6 kts | 152° |
| 2026-04-26 13:23 | 35.56374 | 139.78807 | 31 ft | 60 kts | 150° |
| 2026-04-26 13:24 | 35.55786 | 139.79240 | 31 ft | 135 kts | 150° |
| 2026-04-26 13:24 | 35.54790 | 139.79936 | 365 ft | 178 kts | 147° |
| 2026-04-26 13:24 | 35.53732 | 139.80708 | 1414 ft | 180 kts | 147° |
| 2026-04-26 13:24 | 35.52613 | 139.81528 | 1748 ft | 200 kts | 147° |
| 2026-04-26 13:25 | 35.51457 | 139.82571 | 2195 ft | 212 kts | 134° |
| 2026-04-26 13:25 | 35.50471 | 139.83916 | 2914 ft | 217 kts | 133° |
| 2026-04-26 13:25 | 35.49400 | 139.85242 | 3663 ft | 233 kts | 134° |
| 2026-04-26 13:25 | 35.48238 | 139.86716 | 4724 ft | 252 kts | 134° |
| 2026-04-26 13:26 | 35.47019 | 139.88295 | 5887 ft | 265 kts | 131° |
| 2026-04-26 13:26 | 35.46154 | 139.90260 | 7126 ft | 275 kts | 104° |
| 2026-04-26 13:26 | 35.46145 | 139.92583 | 8323 ft | 286 kts | 77° |
| 2026-04-26 13:26 | 35.47047 | 139.94783 | 9415 ft | 299 kts | 50° |
| 2026-04-26 13:27 | 35.48706 | 139.96332 | 10449 ft | 311 kts | 25° |
| 2026-04-26 13:27 | 35.50860 | 139.97069 | 10853 ft | 343 kts | 4° |
| 2026-04-26 13:27 | 35.53357 | 139.96928 | 11310 ft | 371 kts | 346° |
| 2026-04-26 13:27 | 35.55798 | 139.95842 | 12254 ft | 380 kts | 328° |
| 2026-04-26 13:28 | 35.57899 | 139.93936 | 13466 ft | 379 kts | 311° |
| 2026-04-26 13:28 | 35.59504 | 139.91415 | 14516 ft | 380 kts | 295° |
| 2026-04-26 13:28 | 35.60480 | 139.88428 | 15667 ft | 376 kts | 279° |
| 2026-04-26 13:28 | 35.60750 | 139.85289 | 16671 ft | 375 kts | 264° |
| 2026-04-26 13:29 | 35.60309 | 139.82138 | 17551 ft | 378 kts | 250° |
| 2026-04-26 13:29 | 35.59237 | 139.79221 | 18520 ft | 379 kts | 238° |
| 2026-04-26 13:29 | 35.57710 | 139.76648 | 19577 ft | 377 kts | 228° |
| 2026-04-26 13:29 | 35.55772 | 139.74493 | 20545 ft | 377 kts | 218° |
| 2026-04-26 13:30 | 35.53509 | 139.72841 | 21305 ft | 383 kts | 207° |
| 2026-04-26 13:30 | 35.51002 | 139.71777 | 22150 ft | 388 kts | 198° |
| 2026-04-26 13:30 | 35.48290 | 139.71297 | 22736 ft | 399 kts | 187° |
| 2026-04-26 13:30 | 35.45495 | 139.71471 | 23415 ft | 408 kts | 178° |
| 2026-04-26 13:31 | 35.42695 | 139.72223 | 23926 ft | 418 kts | 173° |
| 2026-04-26 13:31 | 35.39856 | 139.72852 | 24617 ft | 410 kts | 179° |
| 2026-04-26 13:31 | 35.37051 | 139.73521 | 25191 ft | 419 kts | 171° |
| 2026-04-26 13:31 | 35.34211 | 139.74591 | 25483 ft | 427 kts | 170° |
| 2026-04-26 13:32 | 35.31410 | 139.75639 | 26063 ft | 426 kts | 170° |
| 2026-04-26 13:32 | 35.28558 | 139.76715 | 26636 ft | 426 kts | 171° |
| 2026-04-26 13:32 | 35.25731 | 139.77783 | 26929 ft | 430 kts | 171° |
| 2026-04-26 13:32 | 35.22860 | 139.78876 | 27405 ft | 430 kts | 171° |
| 2026-04-26 13:33 | 35.20013 | 139.79950 | 27677 ft | 434 kts | 171° |
| 2026-04-26 13:33 | 35.17108 | 139.81056 | 28079 ft | 434 kts | 171° |
| 2026-04-26 13:33 | 35.14247 | 139.82136 | 28370 ft | 436 kts | 171° |
| 2026-04-26 13:33 | 35.11345 | 139.83237 | 28750 ft | 436 kts | 171° |
| 2026-04-26 13:34 | 35.08448 | 139.84335 | 29056 ft | 436 kts | 171° |
| 2026-04-26 13:34 | 35.05543 | 139.85429 | 29167 ft | 441 kts | 171° |
| 2026-04-26 13:34 | 35.02607 | 139.86542 | 29514 ft | 440 kts | 171° |
| 2026-04-26 13:34 | 35.00669 | 139.87274 | 29667 ft | 442 kts | 171° |
| 2026-04-26 13:35 | 34.96753 | 139.88753 | 29977 ft | 443 kts | 171° |
| 2026-04-26 13:35 | 34.93757 | 139.89651 | 30159 ft | 435 kts | 179° |
| 2026-04-26 13:35 | 34.90780 | 139.90073 | 30307 ft | 435 kts | 181° |
| 2026-04-26 13:35 | 34.87800 | 139.90475 | 30819 ft | 430 kts | 181° |
| 2026-04-26 13:36 | 34.84801 | 139.90872 | 30938 ft | 432 kts | 181° |
| 2026-04-26 13:36 | 34.81864 | 139.91266 | 31533 ft | 424 kts | 181° |
| 2026-04-26 13:36 | 34.78919 | 139.91655 | 31720 ft | 426 kts | 181° |
| 2026-04-26 13:36 | 34.75988 | 139.92046 | 31943 ft | 426 kts | 181° |
| 2026-04-26 13:37 | 34.73034 | 139.92436 | 32279 ft | 423 kts | 181° |
| 2026-04-26 13:37 | 34.67149 | 139.93219 | 32682 ft | 423 kts | 181° |
| 2026-04-26 13:37 | 34.64235 | 139.93607 | 32931 ft | 422 kts | 182° |
| 2026-04-26 13:38 | 34.61363 | 139.93986 | 33165 ft | 421 kts | 182° |
| 2026-04-26 13:38 | 34.58448 | 139.94373 | 33315 ft | 422 kts | 181° |
| 2026-04-26 13:38 | 34.55498 | 139.94763 | 33568 ft | 420 kts | 182° |
| 2026-04-26 13:39 | 34.49700 | 139.95532 | 33968 ft | 419 kts | 181° |
| 2026-04-26 13:39 | 34.46812 | 139.95915 | 34140 ft | 419 kts | 182° |
| 2026-04-26 13:39 | 34.43917 | 139.96295 | 34464 ft | 415 kts | 182° |
| 2026-04-26 13:40 | 34.38157 | 139.97055 | 34708 ft | 416 kts | 182° |
| 2026-04-26 13:40 | 34.35291 | 139.97435 | 34861 ft | 416 kts | 183° |
| 2026-04-26 13:40 | 34.32397 | 139.97813 | 34905 ft | 418 kts | 183° |
| 2026-04-26 13:40 | 34.29505 | 139.98193 | 35055 ft | 418 kts | 182° |
| 2026-04-26 13:41 | 34.26627 | 139.98572 | 35092 ft | 420 kts | 183° |
| 2026-04-26 13:41 | 34.23692 | 139.98956 | 35232 ft | 420 kts | 183° |
| 2026-04-26 13:41 | 34.20842 | 139.99332 | 35567 ft | 414 kts | 183° |
| 2026-04-26 13:42 | 34.15086 | 140.00085 | 35627 ft | 418 kts | 182° |
| 2026-04-26 13:42 | 34.09312 | 140.00844 | 35790 ft | 419 kts | 184° |
| 2026-04-26 13:42 | 34.06384 | 140.01224 | 35926 ft | 418 kts | 183° |
| 2026-04-26 13:43 | 34.03514 | 140.01601 | 35979 ft | 419 kts | 183° |
| 2026-04-26 13:43 | 33.97737 | 140.01862 | 35986 ft | 406 kts | 195° |
| 2026-04-26 13:44 | 33.92224 | 140.00604 | 35966 ft | 404 kts | 199° |
| 2026-04-26 13:44 | 33.86694 | 139.99251 | 35980 ft | 406 kts | 199° |
| 2026-04-26 13:45 | 33.81141 | 139.97868 | 35983 ft | 409 kts | 199° |
| 2026-04-26 13:45 | 33.75565 | 139.96477 | 35986 ft | 411 kts | 199° |
| 2026-04-26 13:46 | 33.69958 | 139.95075 | 35978 ft | 413 kts | 199° |
| 2026-04-26 13:46 | 33.64336 | 139.93669 | 35973 ft | 414 kts | 199° |
| 2026-04-26 13:47 | 33.58709 | 139.92267 | 35972 ft | 415 kts | 199° |
| 2026-04-26 13:47 | 33.53040 | 139.90852 | 35966 ft | 416 kts | 199° |
| 2026-04-26 13:48 | 33.47378 | 139.89441 | 35969 ft | 416 kts | 199° |
| 2026-04-26 13:48 | 33.41728 | 139.88037 | 35949 ft | 417 kts | 199° |
| 2026-04-26 13:49 | 33.36028 | 139.86620 | 35946 ft | 417 kts | 199° |
| 2026-04-26 13:49 | 33.30354 | 139.85211 | 35944 ft | 417 kts | 199° |
| 2026-04-26 13:50 | 33.24690 | 139.83807 | 35947 ft | 417 kts | 199° |
| 2026-04-26 13:50 | 33.18991 | 139.82399 | 35941 ft | 417 kts | 199° |
| 2026-04-26 13:51 | 33.13332 | 139.81000 | 35932 ft | 416 kts | 199° |
| 2026-04-26 13:51 | 33.07673 | 139.79602 | 35936 ft | 416 kts | 199° |
| 2026-04-26 13:52 | 33.02002 | 139.78203 | 35930 ft | 415 kts | 199° |
| 2026-04-26 13:52 | 32.96343 | 139.76811 | 35917 ft | 415 kts | 199° |
| 2026-04-26 13:53 | 32.90709 | 139.75426 | 35921 ft | 414 kts | 200° |
| 2026-04-26 13:53 | 32.85077 | 139.74043 | 35951 ft | 415 kts | 199° |
| 2026-04-26 13:54 | 32.79397 | 139.72664 | 35939 ft | 417 kts | 197° |
| 2026-04-26 13:54 | 32.76502 | 139.72378 | 35952 ft | 428 kts | 188° |
| 2026-04-26 13:54 | 32.73466 | 139.72672 | 35958 ft | 436 kts | 182° |
| 2026-04-26 13:55 | 32.65453 | 139.73853 | 35931 ft | 437 kts | 183° |
| 2026-04-26 13:56 | 32.55402 | 139.75375 | 35936 ft | 438 kts | 182° |
| 2026-04-26 13:56 | 32.49314 | 139.76305 | 35929 ft | 439 kts | 182° |
| 2026-04-26 13:57 | 32.43248 | 139.77231 | 35934 ft | 439 kts | 182° |
| 2026-04-26 13:57 | 32.37215 | 139.78149 | 35939 ft | 439 kts | 182° |
| 2026-04-26 13:58 | 32.31132 | 139.79073 | 35944 ft | 439 kts | 182° |
| 2026-04-26 13:58 | 32.25073 | 139.79994 | 35937 ft | 440 kts | 182° |
| 2026-04-26 13:59 | 32.19015 | 139.80911 | 35939 ft | 440 kts | 182° |
| 2026-04-26 13:59 | 32.12955 | 139.81830 | 35931 ft | 440 kts | 182° |
| 2026-04-26 14:00 | 32.00790 | 139.83667 | 35932 ft | 440 kts | 182° |
| 2026-04-26 14:01 | 31.94709 | 139.84586 | 35929 ft | 440 kts | 182° |
| 2026-04-26 14:01 | 31.88626 | 139.85501 | 35934 ft | 440 kts | 182° |
| 2026-04-26 14:02 | 31.82555 | 139.86414 | 35936 ft | 441 kts | 182° |
| 2026-04-26 14:02 | 31.76487 | 139.87324 | 35945 ft | 441 kts | 182° |
| 2026-04-26 14:03 | 31.70384 | 139.88240 | 35942 ft | 442 kts | 182° |
| 2026-04-26 14:03 | 31.64295 | 139.89153 | 35944 ft | 442 kts | 182° |
| 2026-04-26 14:04 | 31.58207 | 139.90062 | 35942 ft | 442 kts | 182° |
| 2026-04-26 14:04 | 31.52101 | 139.90976 | 35950 ft | 442 kts | 182° |
| 2026-04-26 14:05 | 31.45994 | 139.91885 | 35948 ft | 443 kts | 182° |
| 2026-04-26 14:05 | 31.39880 | 139.92798 | 35961 ft | 443 kts | 182° |
| 2026-04-26 14:06 | 31.33762 | 139.93707 | 35953 ft | 443 kts | 182° |
| 2026-04-26 14:06 | 31.27649 | 139.94617 | 35953 ft | 443 kts | 182° |
| 2026-04-26 14:07 | 31.21532 | 139.95525 | 35954 ft | 443 kts | 182° |
| 2026-04-26 14:07 | 31.15408 | 139.96431 | 35955 ft | 443 kts | 182° |
| 2026-04-26 14:08 | 31.09290 | 139.97339 | 35954 ft | 443 kts | 182° |
| 2026-04-26 14:08 | 31.03177 | 139.98242 | 35960 ft | 443 kts | 182° |
| 2026-04-26 14:09 | 30.97097 | 139.99802 | 35974 ft | 456 kts | 173° |
| 2026-04-26 14:09 | 30.91043 | 140.01971 | 35952 ft | 456 kts | 173° |
| 2026-04-26 14:10 | 30.84963 | 140.04164 | 35971 ft | 457 kts | 173° |
| 2026-04-26 14:10 | 30.78878 | 140.06363 | 35971 ft | 459 kts | 173° |
| 2026-04-26 14:11 | 30.69722 | 140.09670 | 35970 ft | 460 kts | 173° |
| 2026-04-26 14:11 | 30.63639 | 140.11862 | 35974 ft | 461 kts | 173° |
| 2026-04-26 14:12 | 30.57505 | 140.14072 | 35969 ft | 461 kts | 173° |
| 2026-04-26 14:12 | 30.51364 | 140.16281 | 35961 ft | 462 kts | 173° |
| 2026-04-26 14:13 | 30.42157 | 140.19586 | 35973 ft | 462 kts | 173° |
| 2026-04-26 14:14 | 30.36027 | 140.21786 | 35971 ft | 463 kts | 173° |
| 2026-04-26 14:14 | 30.29874 | 140.23988 | 35966 ft | 463 kts | 172° |
| 2026-04-26 14:15 | 30.23707 | 140.26195 | 35972 ft | 463 kts | 173° |
| 2026-04-26 14:15 | 30.17581 | 140.28383 | 35967 ft | 463 kts | 172° |
| 2026-04-26 14:16 | 30.11424 | 140.30577 | 35974 ft | 464 kts | 172° |
| 2026-04-26 14:16 | 30.05238 | 140.32781 | 35972 ft | 464 kts | 172° |
| 2026-04-26 14:17 | 29.99065 | 140.34976 | 35970 ft | 465 kts | 173° |
| 2026-04-26 14:17 | 29.92868 | 140.37177 | 35971 ft | 465 kts | 172° |
| 2026-04-26 14:18 | 29.86724 | 140.39354 | 35991 ft | 466 kts | 172° |
| 2026-04-26 14:18 | 29.80495 | 140.41560 | 35989 ft | 467 kts | 172° |
| 2026-04-26 14:19 | 29.74301 | 140.43750 | 35989 ft | 468 kts | 172° |
| 2026-04-26 14:19 | 29.68075 | 140.45950 | 35983 ft | 468 kts | 172° |
| 2026-04-26 14:20 | 29.61818 | 140.48157 | 35983 ft | 468 kts | 172° |
| 2026-04-26 14:20 | 29.55596 | 140.50348 | 35981 ft | 469 kts | 172° |
| 2026-04-26 14:21 | 29.49349 | 140.52545 | 35981 ft | 469 kts | 172° |
| 2026-04-26 14:21 | 29.43109 | 140.54738 | 35977 ft | 469 kts | 172° |
| 2026-04-26 14:22 | 29.36899 | 140.56917 | 35980 ft | 469 kts | 172° |
| 2026-04-26 14:22 | 29.30649 | 140.59108 | 35979 ft | 470 kts | 172° |
| 2026-04-26 14:23 | 29.24406 | 140.61293 | 35986 ft | 470 kts | 172° |
| 2026-04-26 14:23 | 29.18137 | 140.63484 | 35978 ft | 470 kts | 172° |
| 2026-04-26 14:24 | 29.11881 | 140.65668 | 35963 ft | 470 kts | 172° |
| 2026-04-26 14:24 | 29.05633 | 140.67847 | 35973 ft | 469 kts | 172° |
| 2026-04-26 14:25 | 28.99401 | 140.70018 | 35966 ft | 469 kts | 172° |
| 2026-04-26 14:25 | 28.93170 | 140.72185 | 35966 ft | 469 kts | 172° |
| 2026-04-26 14:26 | 28.86928 | 140.74353 | 35980 ft | 468 kts | 172° |
| 2026-04-26 14:26 | 28.80715 | 140.76508 | 35983 ft | 468 kts | 172° |
| 2026-04-26 14:27 | 28.74483 | 140.78667 | 35988 ft | 469 kts | 172° |
| 2026-04-26 14:27 | 28.68242 | 140.80826 | 35987 ft | 469 kts | 172° |
| 2026-04-26 14:28 | 28.61996 | 140.82985 | 35992 ft | 469 kts | 172° |
| 2026-04-26 14:28 | 28.55749 | 140.85141 | 36001 ft | 470 kts | 172° |
| 2026-04-26 14:29 | 28.49474 | 140.87305 | 35999 ft | 470 kts | 172° |
| 2026-04-26 14:29 | 28.43192 | 140.89468 | 35993 ft | 470 kts | 172° |
| 2026-04-26 14:30 | 28.36945 | 140.91615 | 35997 ft | 471 kts | 172° |
| 2026-04-26 14:30 | 28.30672 | 140.93771 | 35999 ft | 471 kts | 172° |
| 2026-04-26 14:31 | 28.24380 | 140.95931 | 35995 ft | 471 kts | 172° |
| 2026-04-26 14:31 | 28.18101 | 140.98080 | 36003 ft | 471 kts | 172° |
| 2026-04-26 14:32 | 28.11833 | 141.00226 | 35999 ft | 472 kts | 172° |
| 2026-04-26 14:32 | 28.05539 | 141.02377 | 36005 ft | 472 kts | 172° |
| 2026-04-26 14:33 | 27.99252 | 141.04523 | 36003 ft | 472 kts | 172° |
| 2026-04-26 14:33 | 27.92976 | 141.06663 | 36005 ft | 473 kts | 171° |
| 2026-04-26 14:34 | 27.86668 | 141.08810 | 36019 ft | 473 kts | 171° |
| 2026-04-26 14:34 | 27.80384 | 141.10948 | 36020 ft | 474 kts | 171° |
| 2026-04-26 14:35 | 27.74062 | 141.13097 | 36020 ft | 475 kts | 171° |
| 2026-04-26 14:35 | 27.67716 | 141.15250 | 36021 ft | 475 kts | 171° |
| 2026-04-26 14:36 | 27.61366 | 141.17401 | 36023 ft | 476 kts | 171° |
| 2026-04-26 14:36 | 27.55027 | 141.19547 | 36023 ft | 477 kts | 171° |
| 2026-04-26 14:37 | 27.48698 | 141.21686 | 36025 ft | 477 kts | 171° |
| 2026-04-26 14:37 | 27.42304 | 141.23845 | 36024 ft | 477 kts | 171° |
| 2026-04-26 14:38 | 27.35944 | 141.25990 | 36026 ft | 477 kts | 171° |
| 2026-04-26 14:38 | 27.29607 | 141.28125 | 36025 ft | 478 kts | 171° |
| 2026-04-26 14:39 | 27.23222 | 141.30273 | 36025 ft | 478 kts | 170° |
| 2026-04-26 14:39 | 27.16865 | 141.32410 | 36026 ft | 478 kts | 170° |
| 2026-04-26 14:40 | 27.10515 | 141.34541 | 36028 ft | 478 kts | 170° |
| 2026-04-26 14:40 | 27.04137 | 141.36679 | 36029 ft | 478 kts | 170° |
| 2026-04-26 14:41 | 26.97742 | 141.38821 | 36030 ft | 478 kts | 170° |
| 2026-04-26 14:41 | 26.91376 | 141.40950 | 36029 ft | 479 kts | 170° |
| 2026-04-26 14:42 | 26.84982 | 141.43086 | 36036 ft | 479 kts | 170° |
| 2026-04-26 14:42 | 26.78597 | 141.45216 | 36041 ft | 480 kts | 170° |
| 2026-04-26 14:43 | 26.72183 | 141.47354 | 36039 ft | 480 kts | 169° |
| 2026-04-26 14:43 | 26.65793 | 141.49481 | 36038 ft | 481 kts | 169° |
| 2026-04-26 14:44 | 26.59367 | 141.51617 | 36040 ft | 481 kts | 169° |
| 2026-04-26 14:44 | 26.52938 | 141.53752 | 36041 ft | 482 kts | 169° |
| 2026-04-26 14:45 | 26.46528 | 141.55879 | 36042 ft | 483 kts | 169° |
| 2026-04-26 14:45 | 26.40076 | 141.58017 | 36040 ft | 483 kts | 169° |
| 2026-04-26 14:46 | 26.33604 | 141.60158 | 36043 ft | 484 kts | 169° |
| 2026-04-26 14:46 | 26.27147 | 141.62293 | 36047 ft | 484 kts | 169° |
| 2026-04-26 14:47 | 26.20682 | 141.64427 | 36045 ft | 485 kts | 169° |
| 2026-04-26 14:47 | 26.14220 | 141.66559 | 36036 ft | 485 kts | 169° |
| 2026-04-26 14:48 | 26.07733 | 141.68695 | 36035 ft | 485 kts | 169° |
| 2026-04-26 14:48 | 26.01281 | 141.70819 | 36037 ft | 484 kts | 169° |
| 2026-04-26 14:49 | 25.94814 | 141.72945 | 36038 ft | 484 kts | 169° |
| 2026-04-26 14:49 | 25.88350 | 141.75067 | 36040 ft | 484 kts | 169° |
| 2026-04-26 14:50 | 25.81916 | 141.77176 | 36043 ft | 485 kts | 169° |
| 2026-04-26 14:50 | 25.75430 | 141.79300 | 36045 ft | 485 kts | 169° |
| 2026-04-26 14:51 | 25.68965 | 141.81416 | 36043 ft | 486 kts | 169° |
| 2026-04-26 14:51 | 25.62432 | 141.83550 | 36046 ft | 486 kts | 169° |
| 2026-04-26 14:52 | 25.55969 | 141.85660 | 36046 ft | 487 kts | 169° |
| 2026-04-26 14:52 | 25.49477 | 141.87776 | 36043 ft | 487 kts | 169° |
| 2026-04-26 14:53 | 25.42953 | 141.89902 | 36047 ft | 487 kts | 169° |
| 2026-04-26 14:53 | 25.36424 | 141.92026 | 36044 ft | 487 kts | 168° |
| 2026-04-26 14:54 | 25.29945 | 141.94130 | 36045 ft | 488 kts | 168° |
| 2026-04-26 14:54 | 25.23410 | 141.96252 | 36046 ft | 488 kts | 168° |
| 2026-04-26 14:55 | 25.16896 | 141.98363 | 36047 ft | 489 kts | 168° |
| 2026-04-26 14:55 | 25.10361 | 142.00481 | 36048 ft | 489 kts | 168° |
| 2026-04-26 14:56 | 25.03841 | 142.02589 | 36046 ft | 489 kts | 168° |
| 2026-04-26 14:56 | 24.97279 | 142.04495 | 36048 ft | 486 kts | 173° |
| 2026-04-26 14:57 | 24.90659 | 142.06090 | 36047 ft | 487 kts | 172° |
| 2026-04-26 14:57 | 24.84032 | 142.07703 | 36051 ft | 487 kts | 172° |
| 2026-04-26 14:58 | 24.77379 | 142.09325 | 36051 ft | 488 kts | 172° |
| 2026-04-26 14:58 | 24.70744 | 142.10947 | 36051 ft | 488 kts | 172° |
| 2026-04-26 14:59 | 24.64120 | 142.12566 | 36051 ft | 489 kts | 172° |
| 2026-04-26 14:59 | 24.57491 | 142.14183 | 36051 ft | 489 kts | 172° |
| 2026-04-26 15:00 | 24.50808 | 142.15811 | 36051 ft | 490 kts | 172° |
| 2026-04-26 15:00 | 24.44181 | 142.17425 | 36050 ft | 490 kts | 172° |
| 2026-04-26 15:01 | 24.37506 | 142.19049 | 36052 ft | 491 kts | 172° |
| 2026-04-26 15:01 | 24.30815 | 142.20674 | 36050 ft | 491 kts | 172° |
| 2026-04-26 15:02 | 24.24182 | 142.22284 | 36052 ft | 491 kts | 172° |
| 2026-04-26 15:02 | 24.17509 | 142.23901 | 36051 ft | 491 kts | 172° |
| 2026-04-26 15:03 | 24.10833 | 142.25519 | 36051 ft | 491 kts | 172° |
| 2026-04-26 15:03 | 24.04133 | 142.27139 | 36051 ft | 491 kts | 172° |
| 2026-04-26 15:04 | 23.97479 | 142.28748 | 36051 ft | 491 kts | 172° |
| 2026-04-26 15:04 | 23.90783 | 142.30364 | 36051 ft | 492 kts | 172° |
| 2026-04-26 15:05 | 23.84099 | 142.31975 | 36055 ft | 492 kts | 172° |
| 2026-04-26 15:05 | 23.77428 | 142.33581 | 36055 ft | 492 kts | 172° |
| 2026-04-26 15:06 | 23.70696 | 142.35202 | 36054 ft | 493 kts | 172° |
| 2026-04-26 15:06 | 23.64030 | 142.36804 | 36053 ft | 493 kts | 172° |
| 2026-04-26 15:07 | 23.53967 | 142.39220 | 36053 ft | 494 kts | 171° |
| 2026-04-26 15:07 | 23.47242 | 142.40832 | 36052 ft | 494 kts | 171° |
| 2026-04-26 15:08 | 23.40516 | 142.42444 | 36054 ft | 495 kts | 172° |
| 2026-04-26 15:08 | 23.33768 | 142.44058 | 36053 ft | 495 kts | 171° |
| 2026-04-26 15:09 | 23.27048 | 142.45664 | 36053 ft | 496 kts | 171° |
| 2026-04-26 15:09 | 23.20271 | 142.47281 | 36053 ft | 496 kts | 171° |
| 2026-04-26 15:10 | 23.14678 | 142.48616 | 36053 ft | 497 kts | 171° |
| 2026-04-26 15:10 | 23.06798 | 142.50493 | 36053 ft | 497 kts | 171° |
| 2026-04-26 15:11 | 23.00029 | 142.52104 | 36053 ft | 497 kts | 171° |
| 2026-04-26 15:11 | 22.93267 | 142.53713 | 36052 ft | 498 kts | 171° |
| 2026-04-26 15:12 | 22.86496 | 142.55321 | 36055 ft | 498 kts | 171° |
| 2026-04-26 15:12 | 22.79712 | 142.56931 | 36052 ft | 499 kts | 171° |
| 2026-04-26 15:13 | 22.72902 | 142.58545 | 36053 ft | 499 kts | 171° |
| 2026-04-26 15:13 | 22.66125 | 142.60150 | 36052 ft | 500 kts | 171° |
| 2026-04-26 15:14 | 22.59311 | 142.61762 | 36050 ft | 500 kts | 171° |
| 2026-04-26 15:14 | 22.52507 | 142.63368 | 36052 ft | 501 kts | 171° |
| 2026-04-26 15:15 | 22.45713 | 142.64973 | 36052 ft | 501 kts | 171° |
| 2026-04-26 15:15 | 22.38904 | 142.66579 | 36042 ft | 501 kts | 171° |
| 2026-04-26 15:16 | 22.32052 | 142.68193 | 36042 ft | 501 kts | 171° |
| 2026-04-26 15:16 | 22.25268 | 142.69791 | 36042 ft | 501 kts | 171° |
| 2026-04-26 15:17 | 22.19566 | 142.71132 | 36042 ft | 501 kts | 171° |
| 2026-04-26 15:17 | 22.11625 | 142.72998 | 36042 ft | 501 kts | 171° |
| 2026-04-26 15:18 | 22.04793 | 142.74600 | 36046 ft | 502 kts | 172° |
| 2026-04-26 15:18 | 21.97944 | 142.76205 | 36046 ft | 502 kts | 171° |
| 2026-04-26 15:19 | 21.91128 | 142.77802 | 36035 ft | 503 kts | 171° |
| 2026-04-26 15:19 | 21.84283 | 142.79404 | 36037 ft | 503 kts | 171° |
| 2026-04-26 15:20 | 21.77452 | 142.81000 | 36026 ft | 504 kts | 171° |
| 2026-04-26 15:20 | 21.70578 | 142.82605 | 36022 ft | 504 kts | 171° |
| 2026-04-26 15:21 | 21.63704 | 142.84209 | 36019 ft | 505 kts | 171° |
| 2026-04-26 15:21 | 21.56852 | 142.85806 | 36017 ft | 505 kts | 171° |
| 2026-04-26 15:22 | 21.49961 | 142.87411 | 36018 ft | 505 kts | 171° |
| 2026-04-26 15:22 | 21.43080 | 142.89011 | 36014 ft | 506 kts | 171° |
| 2026-04-26 15:23 | 21.36198 | 142.90611 | 36014 ft | 506 kts | 171° |
| 2026-04-26 15:23 | 21.29309 | 142.92210 | 36016 ft | 506 kts | 171° |
| 2026-04-26 15:24 | 21.22400 | 142.93813 | 36013 ft | 507 kts | 171° |
| 2026-04-26 15:24 | 21.15493 | 142.95413 | 36011 ft | 507 kts | 171° |
| 2026-04-26 15:25 | 21.08627 | 142.97003 | 36012 ft | 508 kts | 171° |
| 2026-04-26 15:25 | 21.01709 | 142.98602 | 36011 ft | 508 kts | 171° |
| 2026-04-26 15:26 | 20.94804 | 143.00301 | 36010 ft | 509 kts | 169° |
| 2026-04-26 15:26 | 20.87922 | 143.02028 | 36007 ft | 509 kts | 169° |
| 2026-04-26 15:27 | 20.80985 | 143.03766 | 36008 ft | 509 kts | 169° |
| 2026-04-26 15:27 | 20.74101 | 143.05490 | 36009 ft | 509 kts | 169° |
| 2026-04-26 15:28 | 20.67219 | 143.07211 | 36009 ft | 509 kts | 169° |
| 2026-04-26 15:28 | 20.60312 | 143.08937 | 36010 ft | 510 kts | 169° |
| 2026-04-26 15:29 | 20.53386 | 143.10666 | 36011 ft | 510 kts | 169° |
| 2026-04-26 15:30 | 20.39553 | 143.14114 | 36010 ft | 511 kts | 169° |
| 2026-04-26 15:30 | 20.32606 | 143.15845 | 36011 ft | 511 kts | 169° |
| 2026-04-26 15:31 | 20.22178 | 143.18437 | 36011 ft | 511 kts | 169° |
| 2026-04-26 15:32 | 20.12964 | 143.20726 | 36010 ft | 512 kts | 169° |
| 2026-04-26 15:32 | 20.04823 | 143.22746 | 36011 ft | 512 kts | 169° |
| 2026-04-26 15:33 | 19.97867 | 143.24469 | 36009 ft | 513 kts | 169° |
| 2026-04-26 15:33 | 19.90923 | 143.26189 | 36008 ft | 513 kts | 168° |
| 2026-04-26 15:34 | 19.83977 | 143.27907 | 36005 ft | 513 kts | 168° |
| 2026-04-26 15:34 | 19.77029 | 143.29625 | 36005 ft | 513 kts | 168° |
| 2026-04-26 15:35 | 19.70032 | 143.31352 | 36000 ft | 514 kts | 168° |
| 2026-04-26 15:35 | 19.63055 | 143.33075 | 36003 ft | 514 kts | 168° |
| 2026-04-26 15:36 | 19.56081 | 143.34793 | 36001 ft | 514 kts | 168° |
| 2026-04-26 15:36 | 19.49115 | 143.36508 | 35999 ft | 514 kts | 168° |
| 2026-04-26 15:37 | 19.42146 | 143.38223 | 35998 ft | 514 kts | 168° |
| 2026-04-26 15:37 | 19.35146 | 143.39944 | 35998 ft | 515 kts | 168° |
| 2026-04-26 15:38 | 19.28188 | 143.41653 | 35996 ft | 515 kts | 168° |
| 2026-04-26 15:38 | 19.21191 | 143.43370 | 35994 ft | 515 kts | 168° |
| 2026-04-26 15:39 | 19.14216 | 143.45081 | 35994 ft | 515 kts | 168° |
| 2026-04-26 15:39 | 19.08394 | 143.46507 | 35993 ft | 515 kts | 168° |
| 2026-04-26 15:40 | 19.00237 | 143.48505 | 35991 ft | 516 kts | 168° |
| 2026-04-26 15:40 | 18.93191 | 143.50227 | 35991 ft | 516 kts | 168° |
| 2026-04-26 15:41 | 18.86213 | 143.51932 | 35980 ft | 516 kts | 168° |
| 2026-04-26 15:41 | 18.79219 | 143.53639 | 35975 ft | 516 kts | 168° |
| 2026-04-26 15:42 | 18.72194 | 143.55353 | 35971 ft | 516 kts | 167° |
| 2026-04-26 15:42 | 18.65227 | 143.57051 | 35968 ft | 516 kts | 168° |
| 2026-04-26 15:43 | 18.58172 | 143.58769 | 35968 ft | 516 kts | 167° |
| 2026-04-26 15:44 | 18.47657 | 143.61327 | 35962 ft | 517 kts | 167° |
| 2026-04-26 15:44 | 18.37179 | 143.63873 | 35960 ft | 517 kts | 167° |
| 2026-04-26 15:45 | 18.26624 | 143.66435 | 35958 ft | 517 kts | 168° |
| 2026-04-26 15:46 | 18.16137 | 143.68976 | 35963 ft | 517 kts | 168° |
| 2026-04-26 15:46 | 18.10262 | 143.70398 | 35967 ft | 517 kts | 168° |
| 2026-04-26 15:47 | 17.98533 | 143.73236 | 35967 ft | 518 kts | 168° |
| 2026-04-26 15:48 | 17.91526 | 143.74928 | 35967 ft | 518 kts | 167° |
| 2026-04-26 15:48 | 17.84472 | 143.76631 | 35959 ft | 518 kts | 167° |
| 2026-04-26 15:49 | 17.77430 | 143.78330 | 35960 ft | 518 kts | 167° |
| 2026-04-26 15:49 | 17.70398 | 143.80025 | 35957 ft | 518 kts | 167° |
| 2026-04-26 15:50 | 17.63369 | 143.81717 | 35957 ft | 518 kts | 167° |
| 2026-04-26 15:50 | 17.56334 | 143.83406 | 35954 ft | 518 kts | 168° |
| 2026-04-26 15:51 | 17.49299 | 143.84981 | 35955 ft | 518 kts | 168° |
| 2026-04-26 15:51 | 17.42198 | 143.86569 | 35953 ft | 518 kts | 168° |
| 2026-04-26 15:52 | 17.35151 | 143.88144 | 35957 ft | 518 kts | 168° |
| 2026-04-26 15:52 | 17.28092 | 143.89720 | 35954 ft | 519 kts | 168° |
| 2026-04-26 15:53 | 17.21001 | 143.91303 | 35951 ft | 519 kts | 168° |
| 2026-04-26 15:53 | 17.13952 | 143.92876 | 35952 ft | 519 kts | 168° |
| 2026-04-26 15:54 | 17.06853 | 143.94457 | 35950 ft | 520 kts | 168° |
| 2026-04-26 15:54 | 16.99811 | 143.96024 | 35947 ft | 519 kts | 168° |
| 2026-04-26 15:55 | 16.92689 | 143.97609 | 35945 ft | 520 kts | 168° |
| 2026-04-26 15:55 | 16.85608 | 143.99184 | 35940 ft | 520 kts | 168° |
| 2026-04-26 15:56 | 16.78567 | 144.00748 | 35939 ft | 520 kts | 168° |
| 2026-04-26 15:56 | 16.71481 | 144.02321 | 35938 ft | 520 kts | 168° |
| 2026-04-26 15:57 | 16.64370 | 144.03897 | 35940 ft | 520 kts | 168° |
| 2026-04-26 15:57 | 16.57306 | 144.05463 | 35935 ft | 520 kts | 168° |
| 2026-04-26 15:58 | 16.50233 | 144.07030 | 35931 ft | 520 kts | 168° |
| 2026-04-26 15:58 | 16.43135 | 144.08600 | 35925 ft | 520 kts | 167° |
| 2026-04-26 15:59 | 16.36015 | 144.10175 | 35926 ft | 520 kts | 167° |
| 2026-04-26 15:59 | 16.28954 | 144.11736 | 35927 ft | 521 kts | 167° |
| 2026-04-26 16:00 | 16.21852 | 144.13303 | 35927 ft | 521 kts | 167° |
| 2026-04-26 16:00 | 16.14759 | 144.14868 | 35927 ft | 521 kts | 167° |
| 2026-04-26 16:01 | 16.07646 | 144.16437 | 35927 ft | 521 kts | 167° |
| 2026-04-26 16:01 | 16.00563 | 144.17996 | 35928 ft | 521 kts | 167° |
| 2026-04-26 16:02 | 15.93450 | 144.19563 | 35926 ft | 522 kts | 167° |
| 2026-04-26 16:02 | 15.86331 | 144.21129 | 35916 ft | 522 kts | 167° |
| 2026-04-26 16:03 | 15.79228 | 144.22691 | 35919 ft | 522 kts | 167° |
| 2026-04-26 16:03 | 15.72103 | 144.24255 | 35917 ft | 521 kts | 167° |
| 2026-04-26 16:04 | 15.65024 | 144.25810 | 35918 ft | 521 kts | 167° |
| 2026-04-26 16:04 | 15.57869 | 144.27379 | 35921 ft | 522 kts | 167° |
| 2026-04-26 16:05 | 15.50790 | 144.28932 | 35916 ft | 522 kts | 167° |
| 2026-04-26 16:05 | 15.43663 | 144.30493 | 35914 ft | 523 kts | 167° |
| 2026-04-26 16:06 | 15.36518 | 144.32057 | 35913 ft | 523 kts | 167° |
| 2026-04-26 16:06 | 15.29410 | 144.33612 | 35907 ft | 523 kts | 167° |
| 2026-04-26 16:07 | 15.22286 | 144.35169 | 35907 ft | 524 kts | 167° |
| 2026-04-26 16:07 | 15.15145 | 144.36729 | 35905 ft | 524 kts | 167° |
| 2026-04-26 16:08 | 15.07987 | 144.38266 | 35900 ft | 524 kts | 168° |
| 2026-04-26 16:08 | 15.00791 | 144.39635 | 35904 ft | 525 kts | 168° |
| 2026-04-26 16:09 | 14.93589 | 144.41011 | 35906 ft | 525 kts | 168° |
| 2026-04-26 16:09 | 14.86416 | 144.42381 | 35896 ft | 525 kts | 168° |
| 2026-04-26 16:10 | 14.79214 | 144.43756 | 35895 ft | 524 kts | 168° |
| 2026-04-26 16:10 | 14.72043 | 144.45125 | 35898 ft | 524 kts | 168° |
| 2026-04-26 16:11 | 14.64864 | 144.46493 | 35896 ft | 524 kts | 168° |
| 2026-04-26 16:11 | 14.57653 | 144.47867 | 35895 ft | 524 kts | 168° |
| 2026-04-26 16:12 | 14.50463 | 144.49237 | 35895 ft | 524 kts | 168° |
| 2026-04-26 16:12 | 14.39691 | 144.51286 | 35897 ft | 524 kts | 168° |
| 2026-04-26 16:13 | 14.32527 | 144.52649 | 35898 ft | 524 kts | 168° |
| 2026-04-26 16:13 | 14.25307 | 144.54021 | 35898 ft | 524 kts | 168° |
| 2026-04-26 16:14 | 14.18157 | 144.55377 | 35897 ft | 524 kts | 168° |
| 2026-04-26 16:15 | 14.07352 | 144.57426 | 35898 ft | 525 kts | 168° |
| 2026-04-26 16:15 | 14.00138 | 144.58795 | 35897 ft | 525 kts | 168° |
| 2026-04-26 16:16 | 13.89378 | 144.60832 | 35898 ft | 525 kts | 168° |
| 2026-04-26 16:16 | 13.82183 | 144.62195 | 35897 ft | 525 kts | 168° |
| 2026-04-26 16:17 | 13.74952 | 144.63415 | 35898 ft | 524 kts | 175° |
| 2026-04-26 16:17 | 13.67693 | 144.62944 | 35896 ft | 524 kts | 192° |
| 2026-04-26 16:18 | 13.57460 | 144.59109 | 35916 ft | 522 kts | 197° |
| 2026-04-26 16:19 | 13.46818 | 144.56790 | 35906 ft | 523 kts | 181° |
| 2026-04-26 16:19 | 13.39610 | 144.57626 | 35904 ft | 522 kts | 163° |
| 2026-04-26 16:20 | 13.36185 | 144.58846 | 35901 ft | 520 kts | 154° |
| 2026-04-26 16:20 | 13.30060 | 144.62756 | 35901 ft | 516 kts | 137° |
| 2026-04-26 16:20 | 13.27523 | 144.65328 | 35902 ft | 514 kts | 128° |
| 2026-04-26 16:21 | 13.23720 | 144.71477 | 35900 ft | 508 kts | 110° |
| 2026-04-26 16:21 | 13.21932 | 144.78384 | 35901 ft | 501 kts | 93° |
| 2026-04-26 16:22 | 13.21931 | 144.85474 | 35892 ft | 498 kts | 84° |
| 2026-04-26 16:22 | 13.22586 | 144.92499 | 35892 ft | 498 kts | 79° |
| 2026-04-26 16:23 | 13.23745 | 144.99510 | 35894 ft | 497 kts | 76° |
| 2026-04-26 16:23 | 13.25333 | 145.06390 | 35888 ft | 496 kts | 72° |
| 2026-04-26 16:24 | 13.27297 | 145.13133 | 35888 ft | 495 kts | 69° |
| 2026-04-26 16:24 | 13.29610 | 145.19780 | 35887 ft | 495 kts | 66° |
| 2026-04-26 16:25 | 13.32120 | 145.26321 | 35884 ft | 496 kts | 67° |
| 2026-04-26 16:25 | 13.34484 | 145.32954 | 35885 ft | 497 kts | 68° |
| 2026-04-26 16:26 | 13.36708 | 145.39702 | 35885 ft | 497 kts | 70° |
| 2026-04-26 16:26 | 13.38777 | 145.46425 | 35885 ft | 498 kts | 71° |
| 2026-04-26 16:27 | 13.40389 | 145.53313 | 35883 ft | 501 kts | 82° |
| 2026-04-26 16:27 | 13.40094 | 145.60469 | 35885 ft | 505 kts | 99° |
| 2026-04-26 16:28 | 13.37767 | 145.67241 | 35885 ft | 510 kts | 116° |
| 2026-04-26 16:28 | 13.34785 | 145.73845 | 35902 ft | 507 kts | 104° |
| 2026-04-26 16:29 | 13.33808 | 145.80907 | 35902 ft | 503 kts | 87° |
| 2026-04-26 16:29 | 13.34951 | 145.87897 | 35902 ft | 498 kts | 70° |
| 2026-04-26 16:30 | 13.37013 | 145.94672 | 35877 ft | 500 kts | 75° |
| 2026-04-26 16:30 | 13.37635 | 146.01755 | 35881 ft | 504 kts | 92° |
| 2026-04-26 16:31 | 13.36205 | 146.08798 | 35885 ft | 507 kts | 109° |
| 2026-04-26 16:31 | 13.33007 | 146.15254 | 35890 ft | 509 kts | 115° |
| 2026-04-26 16:32 | 13.30851 | 146.22101 | 35888 ft | 505 kts | 97° |
| 2026-04-26 16:32 | 13.30815 | 146.29219 | 35889 ft | 501 kts | 79° |
| 2026-04-26 16:33 | 13.32690 | 146.36084 | 35874 ft | 499 kts | 70° |
| 2026-04-26 16:33 | 13.34424 | 146.42935 | 35867 ft | 502 kts | 81° |
| 2026-04-26 16:34 | 13.34259 | 146.50056 | 35878 ft | 506 kts | 98° |
| 2026-04-26 16:34 | 13.32039 | 146.56937 | 35878 ft | 510 kts | 115° |
| 2026-04-26 16:35 | 13.28754 | 146.63344 | 35893 ft | 509 kts | 109° |
| 2026-04-26 16:35 | 13.27237 | 146.70366 | 35891 ft | 505 kts | 91° |
| 2026-04-26 16:36 | 13.27857 | 146.77466 | 35887 ft | 502 kts | 74° |
| 2026-04-26 16:36 | 13.30005 | 146.84264 | 35867 ft | 501 kts | 70° |
| 2026-04-26 16:37 | 13.31319 | 146.91293 | 35868 ft | 505 kts | 86° |
| 2026-04-26 16:37 | 13.30586 | 146.98422 | 35872 ft | 509 kts | 103° |
| 2026-04-26 16:38 | 13.27843 | 147.05103 | 35877 ft | 511 kts | 120° |
| 2026-04-26 16:38 | 13.24746 | 147.11609 | 35898 ft | 510 kts | 106° |
| 2026-04-26 16:39 | 13.23653 | 147.18750 | 35901 ft | 508 kts | 88° |
| 2026-04-26 16:39 | 13.24703 | 147.25847 | 35894 ft | 505 kts | 71° |
| 2026-04-26 16:40 | 13.26929 | 147.32655 | 35872 ft | 506 kts | 72° |
| 2026-04-26 16:40 | 13.27887 | 147.39784 | 35879 ft | 511 kts | 89° |
| 2026-04-26 16:41 | 13.26803 | 147.46956 | 35884 ft | 513 kts | 106° |
| 2026-04-26 16:41 | 13.23752 | 147.53552 | 35886 ft | 514 kts | 122° |
| 2026-04-26 16:42 | 13.20787 | 147.60204 | 35904 ft | 514 kts | 105° |
| 2026-04-26 16:42 | 13.19884 | 147.67430 | 35897 ft | 514 kts | 87° |
| 2026-04-26 16:43 | 13.21124 | 147.74614 | 35903 ft | 512 kts | 70° |
| 2026-04-26 16:43 | 13.23359 | 147.81511 | 35877 ft | 513 kts | 74° |
| 2026-04-26 16:44 | 13.24191 | 147.88762 | 35881 ft | 515 kts | 91° |
| 2026-04-26 16:44 | 13.22965 | 147.95984 | 35885 ft | 515 kts | 108° |
| 2026-04-26 16:45 | 13.19818 | 148.02506 | 35886 ft | 514 kts | 123° |
| 2026-04-26 16:45 | 13.16830 | 148.09161 | 35900 ft | 516 kts | 106° |
| 2026-04-26 16:46 | 13.15902 | 148.16402 | 35901 ft | 517 kts | 88° |
| 2026-04-26 16:46 | 13.17106 | 148.23612 | 35901 ft | 516 kts | 71° |
| 2026-04-26 16:47 | 13.19381 | 148.30602 | 35877 ft | 517 kts | 75° |
| 2026-04-26 16:47 | 13.20248 | 148.37871 | 35884 ft | 517 kts | 91° |
| 2026-04-26 16:48 | 13.19074 | 148.45075 | 35884 ft | 516 kts | 108° |
| 2026-04-26 16:48 | 13.15946 | 148.51665 | 35887 ft | 514 kts | 124° |
| 2026-04-26 16:49 | 13.12852 | 148.58255 | 35903 ft | 516 kts | 107° |
| 2026-04-26 16:49 | 13.11789 | 148.65488 | 35899 ft | 519 kts | 90° |
| 2026-04-26 16:50 | 13.12862 | 148.72772 | 35898 ft | 519 kts | 72° |
| 2026-04-26 16:50 | 13.15160 | 148.79771 | 35874 ft | 520 kts | 74° |
| 2026-04-26 16:51 | 13.16151 | 148.87059 | 35882 ft | 519 kts | 91° |
| 2026-04-26 16:51 | 13.15089 | 148.94324 | 35881 ft | 516 kts | 108° |
| 2026-04-26 16:52 | 13.12713 | 148.99919 | 35880 ft | 513 kts | 122° |
| 2026-04-26 16:52 | 13.08810 | 149.07388 | 35897 ft | 515 kts | 110° |
| 2026-04-26 16:53 | 13.07490 | 149.14592 | 35894 ft | 519 kts | 92° |
| 2026-04-26 16:53 | 13.08309 | 149.21918 | 35881 ft | 521 kts | 74° |
| 2026-04-26 16:54 | 13.10608 | 149.28967 | 35864 ft | 521 kts | 72° |
| 2026-04-26 16:54 | 13.11821 | 149.36250 | 35863 ft | 520 kts | 89° |
| 2026-04-26 16:55 | 13.10987 | 149.43523 | 35862 ft | 518 kts | 106° |
| 2026-04-26 16:55 | 13.08210 | 149.50293 | 35871 ft | 514 kts | 122° |
| 2026-04-26 16:56 | 13.03666 | 149.60149 | 35900 ft | 517 kts | 103° |
| 2026-04-26 16:57 | 13.03102 | 149.67487 | 35896 ft | 520 kts | 86° |
| 2026-04-26 16:57 | 13.05845 | 149.78200 | 35881 ft | 521 kts | 71° |
| 2026-04-26 16:58 | 13.07193 | 149.84174 | 35881 ft | 520 kts | 84° |
| 2026-04-26 16:58 | 13.06710 | 149.92763 | 35879 ft | 518 kts | 104° |
| 2026-04-26 16:59 | 13.05670 | 149.96249 | 35882 ft | 516 kts | 112° |
| 2026-04-26 16:59 | 13.02298 | 150.02687 | 35889 ft | 512 kts | 124° |
| 2026-04-26 17:00 | 12.99300 | 150.09326 | 35901 ft | 517 kts | 107° |
| 2026-04-26 17:00 | 12.98352 | 150.16563 | 35901 ft | 520 kts | 89° |
| 2026-04-26 17:00 | 12.98677 | 150.20235 | 35900 ft | 521 kts | 80° |
| 2026-04-26 17:01 | 13.00713 | 150.27338 | 35887 ft | 521 kts | 71° |
| 2026-04-26 17:01 | 13.02497 | 150.34509 | 35886 ft | 521 kts | 84° |
| 2026-04-26 17:02 | 13.02297 | 150.41884 | 35885 ft | 518 kts | 101° |
| 2026-04-26 17:02 | 13.00109 | 150.48879 | 35886 ft | 515 kts | 117° |
| 2026-04-26 17:03 | 12.96426 | 150.55113 | 35897 ft | 513 kts | 121° |
| 2026-04-26 17:03 | 12.93866 | 150.61894 | 35900 ft | 517 kts | 103° |
| 2026-04-26 17:04 | 12.93369 | 150.69223 | 35896 ft | 520 kts | 85° |
| 2026-04-26 17:04 | 12.94980 | 150.76419 | 35898 ft | 521 kts | 71° |
| 2026-04-26 17:05 | 12.97151 | 150.83491 | 35875 ft | 520 kts | 79° |
| 2026-04-26 17:05 | 12.97588 | 150.90846 | 35879 ft | 518 kts | 96° |
| 2026-04-26 17:06 | 12.96003 | 150.97971 | 35882 ft | 514 kts | 112° |
| 2026-04-26 17:06 | 12.92711 | 151.04396 | 35883 ft | 510 kts | 126° |
| 2026-04-26 17:07 | 12.89422 | 151.10849 | 35896 ft | 514 kts | 109° |
| 2026-04-26 17:07 | 12.88149 | 151.17992 | 35900 ft | 517 kts | 92° |
| 2026-04-26 17:08 | 12.89007 | 151.25304 | 35898 ft | 520 kts | 74° |
| 2026-04-26 17:08 | 12.91325 | 151.32329 | 35878 ft | 520 kts | 72° |
| 2026-04-26 17:09 | 12.93536 | 151.37965 | 35892 ft | 503 kts | 60° |
| 2026-04-26 17:09 | 12.96139 | 151.41794 | 35897 ft | 482 kts | 48° |
| 2026-04-26 17:09 | 12.98512 | 151.44167 | 35891 ft | 463 kts | 38° |
| 2026-04-26 17:10 | 13.01080 | 151.45985 | 35893 ft | 447 kts | 27° |
| 2026-04-26 17:10 | 13.03907 | 151.47317 | 35916 ft | 449 kts | 17° |
| 2026-04-26 17:10 | 13.10119 | 151.48416 | 35910 ft | 459 kts | 357° |
| 2026-04-26 17:11 | 13.16368 | 151.47325 | 35897 ft | 453 kts | 337° |
| 2026-04-26 17:11 | 13.21785 | 151.44197 | 35900 ft | 444 kts | 317° |
| 2026-04-26 17:12 | 13.25745 | 151.39432 | 35901 ft | 440 kts | 297° |
| 2026-04-26 17:12 | 13.27050 | 151.36571 | 35904 ft | 438 kts | 287° |
| 2026-04-26 17:13 | 13.28050 | 151.30496 | 35895 ft | 433 kts | 267° |
| 2026-04-26 17:13 | 13.27752 | 151.27451 | 35896 ft | 432 kts | 260° |
| 2026-04-26 17:13 | 13.27751 | 151.21289 | 35882 ft | 435 kts | 277° |
| 2026-04-26 17:14 | 13.28887 | 151.13232 | 35892 ft | 434 kts | 275° |
| 2026-04-26 17:14 | 13.30487 | 150.95201 | 35887 ft | 433 kts | 272° |
| 2026-04-26 17:15 | 13.31039 | 150.85931 | 35891 ft | 433 kts | 272° |
| 2026-04-26 17:16 | 13.31392 | 150.79823 | 35891 ft | 432 kts | 272° |
| 2026-04-26 17:16 | 13.33378 | 150.44612 | 35886 ft | 432 kts | 272° |
| 2026-04-26 17:17 | 13.36434 | 149.88860 | 35890 ft | 433 kts | 271° |
| 2026-04-26 17:17 | 13.41536 | 148.89877 | 35871 ft | 433 kts | 272° |
| 2026-04-26 17:18 | 13.46197 | 147.91585 | 35880 ft | 435 kts | 273° |
| 2026-04-26 17:18 | 13.50576 | 146.91536 | 35922 ft | 445 kts | 274° |
| 2026-04-26 17:19 | 13.53932 | 146.08414 | 35129 ft | 457 kts | 274° |
| 2026-04-26 17:19 | 13.54056 | 146.05174 | 34328 ft | 452 kts | 274° |
| 2026-04-26 17:19 | 13.54180 | 146.01956 | 33581 ft | 452 kts | 275° |
| 2026-04-26 17:20 | 13.54303 | 145.98753 | 32791 ft | 457 kts | 275° |
| 2026-04-26 17:20 | 13.54386 | 145.96556 | 32289 ft | 461 kts | 275° |
| 2026-04-26 17:20 | 13.54553 | 145.92166 | 31312 ft | 464 kts | 275° |
| 2026-04-26 17:20 | 13.54679 | 145.88841 | 30562 ft | 466 kts | 275° |
| 2026-04-26 17:21 | 13.54804 | 145.85525 | 29807 ft | 468 kts | 275° |
| 2026-04-26 17:21 | 13.54928 | 145.82204 | 29045 ft | 470 kts | 275° |
| 2026-04-26 17:21 | 13.55055 | 145.78844 | 27842 ft | 476 kts | 275° |
| 2026-04-26 17:21 | 13.55791 | 145.59457 | 20339 ft | 470 kts | 273° |
| 2026-04-26 17:22 | 13.56121 | 145.50501 | 17059 ft | 452 kts | 271° |
| 2026-04-26 17:22 | 13.56222 | 145.47397 | 16482 ft | 424 kts | 271° |
| 2026-04-26 17:22 | 13.56322 | 145.44452 | 16058 ft | 404 kts | 271° |
| 2026-04-26 17:22 | 13.56424 | 145.41553 | 15653 ft | 406 kts | 271° |
| 2026-04-26 17:23 | 13.57031 | 145.24452 | 12681 ft | 383 kts | 270° |
| 2026-04-26 17:23 | 13.57123 | 145.21790 | 12294 ft | 358 kts | 270° |
| 2026-04-26 17:23 | 13.57209 | 145.19350 | 11977 ft | 336 kts | 270° |
| 2026-04-26 17:23 | 13.57290 | 145.17015 | 11700 ft | 317 kts | 269° |
| 2026-04-26 17:24 | 13.57365 | 145.14816 | 11459 ft | 299 kts | 269° |
| 2026-04-26 17:24 | 13.57436 | 145.12729 | 11238 ft | 291 kts | 269° |
| 2026-04-26 17:24 | 13.57506 | 145.10550 | 11076 ft | 323 kts | 270° |
| 2026-04-26 17:24 | 13.57778 | 145.02333 | 10619 ft | 359 kts | 270° |
| 2026-04-26 17:25 | 13.57870 | 144.99768 | 10021 ft | 359 kts | 270° |
| 2026-04-26 17:25 | 13.57960 | 144.97264 | 9499 ft | 341 kts | 270° |
| 2026-04-26 17:25 | 13.58045 | 144.94896 | 9112 ft | 322 kts | 270° |
| 2026-04-26 17:25 | 13.58511 | 144.80997 | 7588 ft | 303 kts | 271° |
| 2026-04-26 17:26 | 13.58581 | 144.78909 | 7380 ft | 287 kts | 271° |
| 2026-04-26 17:26 | 13.58648 | 144.76900 | 7257 ft | 282 kts | 271° |
| 2026-04-26 17:26 | 13.58715 | 144.74850 | 7085 ft | 289 kts | 271° |
| 2026-04-26 17:26 | 13.58947 | 144.67746 | 6256 ft | 289 kts | 271° |
| 2026-04-26 17:27 | 13.58704 | 144.65715 | 5980 ft | 284 kts | 247° |
| 2026-04-26 17:27 | 13.57709 | 144.64002 | 5693 ft | 282 kts | 229° |
| 2026-04-26 17:27 | 13.56402 | 144.62485 | 5366 ft | 281 kts | 222° |
| 2026-04-26 17:27 | 13.54945 | 144.61144 | 5046 ft | 276 kts | 215° |
| 2026-04-26 17:28 | 13.53377 | 144.60025 | 4757 ft | 274 kts | 207° |
| 2026-04-26 17:28 | 13.48575 | 144.57530 | 3943 ft | 271 kts | 195° |
| 2026-04-26 17:28 | 13.46744 | 144.57291 | 3708 ft | 260 kts | 171° |
| 2026-04-26 17:28 | 13.44932 | 144.57513 | 3400 ft | 259 kts | 161° |
| 2026-04-26 17:29 | 13.43393 | 144.58316 | 3138 ft | 244 kts | 131° |
| 2026-04-26 17:29 | 13.42727 | 144.59222 | 2979 ft | 231 kts | 110° |
| 2026-04-26 17:29 | 13.42656 | 144.61179 | 2983 ft | 198 kts | 70° |
| 2026-04-26 17:29 | 13.42990 | 144.62524 | 2681 ft | 198 kts | 83° |
| 2026-04-26 17:30 | 13.43049 | 144.64012 | 2367 ft | 215 kts | 89° |
| 2026-04-26 17:30 | 13.43015 | 144.65488 | 2373 ft | 192 kts | 89° |
| 2026-04-26 17:30 | 13.43050 | 144.66779 | 2507 ft | 178 kts | 84° |
| 2026-04-26 17:30 | 13.43295 | 144.68031 | 2295 ft | 172 kts | 72° |
| 2026-04-26 17:31 | 13.43675 | 144.69151 | 1919 ft | 162 kts | 68° |
| 2026-04-26 17:31 | 13.44137 | 144.70117 | 1690 ft | 141 kts | 65° |
| 2026-04-26 17:31 | 13.44565 | 144.71010 | 1514 ft | 137 kts | 65° |
| 2026-04-26 17:31 | 13.44964 | 144.71854 | 1340 ft | 131 kts | 67° |
| 2026-04-26 17:32 | 13.45319 | 144.72748 | 1252 ft | 141 kts | 67° |
| 2026-04-26 17:32 | 13.45736 | 144.73665 | 1318 ft | 147 kts | 63° |
| 2026-04-26 17:32 | 13.46190 | 144.74603 | 1137 ft | 143 kts | 65° |
| 2026-04-26 17:32 | 13.46582 | 144.75519 | 793 ft | 139 kts | 66° |
| 2026-04-26 17:33 | 13.46989 | 144.76417 | 620 ft | 138 kts | 65° |
| 2026-04-26 17:33 | 13.47395 | 144.77309 | 484 ft | 139 kts | 64° |
| 2026-04-26 17:33 | 13.47803 | 144.78210 | 321 ft | 137 kts | 64° |
| 2026-04-26 17:34 | 13.48465 | 144.79642 | 281 ft | 53 kts | 66° |
| 2026-04-26 17:34 | 13.48597 | 144.79933 | 281 ft | 46 kts | 62° |
| 2026-04-26 17:34 | 13.48710 | 144.80174 | 283 ft | 25 kts | 60° |
| 2026-04-26 17:34 | 13.48835 | 144.80307 | 287 ft | 26 kts | 36° |
| 2026-04-26 17:35 | 13.48970 | 144.80405 | 289 ft | 25 kts | 31° |
| 2026-04-26 17:35 | 13.49040 | 144.80498 | 290 ft | 15 kts | 51° |
| 2026-04-26 17:35 | 13.49086 | 144.80510 | 288 ft | 9 kts | 331° |
| 2026-04-26 17:35 | 13.49127 | 144.80486 | 282 ft | 0 kts | 331° |